sensor_id;sensor_type;location;lat;lon;timestamp;pressure;altitude;pressure_sealevel;temperature;humidity
78014;BME280;67222;50.182;8.734;2023-04-24T04:30:14;99330.25;;;10.86;72.48
78014;BME280;67222;50.182;8.734;2023-04-24T04:32:40;99334.09;;;10.79;70.93
78014;BME280;67222;50.182;8.734;2023-04-24T04:35:05;99345.56;;;10.68;71.37
78014;BME280;67222;50.182;8.734;2023-04-24T04:37:32;99333.16;;;10.73;69.02
78014;BME280;67222;50.182;8.734;2023-04-24T04:39:58;99347.97;;;10.57;69.92
78014;BME280;67222;50.182;8.734;2023-04-24T04:42:24;99339.97;;;10.46;70.07
78014;BME280;67222;50.182;8.734;2023-04-24T04:44:50;99360.03;;;10.48;69.45
78014;BME280;67222;50.182;8.734;2023-04-24T04:47:16;99362.66;;;10.37;70.40
78014;BME280;67222;50.182;8.734;2023-04-24T04:49:42;99348.75;;;10.35;65.78
78014;BME280;67222;50.182;8.734;2023-04-24T04:52:08;99363.00;;;10.28;66.01
78014;BME280;67222;50.182;8.734;2023-04-24T04:54:33;99370.25;;;10.21;66.28
78014;BME280;67222;50.182;8.734;2023-04-24T04:56:59;99367.44;;;10.16;65.94
78014;BME280;67222;50.182;8.734;2023-04-24T04:59:25;99363.03;;;10.10;66.53
78014;BME280;67222;50.182;8.734;2023-04-24T05:01:50;99368.00;;;10.07;65.65
78014;BME280;67222;50.182;8.734;2023-04-24T05:04:16;99365.34;;;10.07;65.44
78014;BME280;67222;50.182;8.734;2023-04-24T05:06:41;99376.63;;;10.02;66.38
78014;BME280;67222;50.182;8.734;2023-04-24T05:09:06;99380.56;;;9.99;65.78
78014;BME280;67222;50.182;8.734;2023-04-24T05:11:32;99384.19;;;10.05;64.86
78014;BME280;67222;50.182;8.734;2023-04-24T05:13:57;99386.88;;;10.05;66.43
78014;BME280;67222;50.182;8.734;2023-04-24T05:16:23;99400.84;;;10.00;66.00
78014;BME280;67222;50.182;8.734;2023-04-24T05:18:48;99393.75;;;9.94;66.69
78014;BME280;67222;50.182;8.734;2023-04-24T05:21:13;99400.56;;;9.90;66.93
78014;BME280;67222;50.182;8.734;2023-04-24T05:23:39;99385.41;;;9.91;67.09
78014;BME280;67222;50.182;8.734;2023-04-24T05:26:05;99396.50;;;9.88;66.76
78014;BME280;67222;50.182;8.734;2023-04-24T05:28:30;99399.19;;;9.88;67.39
78014;BME280;67222;50.182;8.734;2023-04-24T05:30:56;99413.66;;;9.92;66.83
78014;BME280;67222;50.182;8.734;2023-04-24T05:33:21;99404.50;;;9.88;67.42
78014;BME280;67222;50.182;8.734;2023-04-24T05:35:47;99409.00;;;9.87;68.10
78014;BME280;67222;50.182;8.734;2023-04-24T05:38:13;99408.25;;;9.98;68.29
78014;BME280;67222;50.182;8.734;2023-04-24T05:40:39;99407.16;;;9.88;68.41
78014;BME280;67222;50.182;8.734;2023-04-24T05:43:05;99414.47;;;9.92;69.04
78014;BME280;67222;50.182;8.734;2023-04-24T05:45:30;99422.81;;;9.96;68.33
78014;BME280;67222;50.182;8.734;2023-04-24T05:47:55;99422.59;;;9.97;68.09
78014;BME280;67222;50.182;8.734;2023-04-24T05:50:21;99430.81;;;9.96;67.00
78014;BME280;67222;50.182;8.734;2023-04-24T05:52:46;99432.56;;;10.02;66.60
78014;BME280;67222;50.182;8.734;2023-04-24T05:55:11;99437.91;;;10.02;66.12
78014;BME280;67222;50.182;8.734;2023-04-24T05:57:36;99440.34;;;10.03;64.69
78014;BME280;67222;50.182;8.734;2023-04-24T06:00:03;99442.06;;;9.98;64.48
78014;BME280;67222;50.182;8.734;2023-04-24T06:02:29;99447.16;;;9.99;63.83
78014;BME280;67222;50.182;8.734;2023-04-24T06:04:58;99459.59;;;10.06;63.44
78014;BME280;67222;50.182;8.734;2023-04-24T06:07:24;99452.31;;;10.13;62.48
78014;BME280;67222;50.182;8.734;2023-04-24T06:09:51;99445.72;;;10.15;62.05
78014;BME280;67222;50.182;8.734;2023-04-24T06:12:17;99448.47;;;10.09;61.77
78014;BME280;67222;50.182;8.734;2023-04-24T06:14:42;99456.84;;;10.12;60.62
78014;BME280;67222;50.182;8.734;2023-04-24T06:17:08;99448.56;;;10.02;61.63
78014;BME280;67222;50.182;8.734;2023-04-24T06:19:33;99447.38;;;9.98;61.03
78014;BME280;67222;50.182;8.734;2023-04-24T06:21:58;99453.06;;;9.83;62.23
78014;BME280;67222;50.182;8.734;2023-04-24T06:24:27;99454.78;;;9.78;63.20
78014;BME280;67222;50.182;8.734;2023-04-24T06:26:53;99454.78;;;9.78;62.81
78014;BME280;67222;50.182;8.734;2023-04-24T06:29:18;99454.56;;;9.79;63.15
78014;BME280;67222;50.182;8.734;2023-04-24T06:31:43;99461.28;;;9.82;64.45
78014;BME280;67222;50.182;8.734;2023-04-24T06:34:08;99467.44;;;9.82;64.11
78014;BME280;67222;50.182;8.734;2023-04-24T06:36:34;99468.63;;;9.86;63.48
78014;BME280;67222;50.182;8.734;2023-04-24T06:39:00;99477.22;;;9.88;63.91
78014;BME280;67222;50.182;8.734;2023-04-24T06:41:26;99491.56;;;9.87;64.66
78014;BME280;67222;50.182;8.734;2023-04-24T06:43:51;99486.00;;;9.89;64.13
78014;BME280;67222;50.182;8.734;2023-04-24T06:46:16;99480.59;;;9.95;64.42
78014;BME280;67222;50.182;8.734;2023-04-24T06:48:42;99482.44;;;9.95;64.50
78014;BME280;67222;50.182;8.734;2023-04-24T06:51:07;99488.66;;;9.89;63.42
78014;BME280;67222;50.182;8.734;2023-04-24T06:53:33;99483.13;;;9.90;63.39
78014;BME280;67222;50.182;8.734;2023-04-24T06:55:58;99489.72;;;9.88;64.75
78014;BME280;67222;50.182;8.734;2023-04-24T06:58:24;99507.91;;;9.91;64.54
78014;BME280;67222;50.182;8.734;2023-04-24T07:00:50;99484.28;;;9.94;64.50
78014;BME280;67222;50.182;8.734;2023-04-24T07:03:15;99523.06;;;10.09;63.54
78014;BME280;67222;50.182;8.734;2023-04-24T07:05:41;99492.72;;;10.10;63.37
78014;BME280;67222;50.182;8.734;2023-04-24T07:08:06;99481.25;;;10.09;63.42
78014;BME280;67222;50.182;8.734;2023-04-24T07:10:32;99474.44;;;10.13;63.44
78014;BME280;67222;50.182;8.734;2023-04-24T07:13:00;99474.31;;;10.08;63.03
78014;BME280;67222;50.182;8.734;2023-04-24T07:15:26;99471.09;;;10.18;63.40
78014;BME280;67222;50.182;8.734;2023-04-24T07:17:51;99478.25;;;10.24;64.07
78014;BME280;67222;50.182;8.734;2023-04-24T07:20:17;99489.03;;;10.29;62.97
78014;BME280;67222;50.182;8.734;2023-04-24T07:22:42;99484.97;;;10.26;63.23
78014;BME280;67222;50.182;8.734;2023-04-24T07:25:08;99488.00;;;10.30;63.51
78014;BME280;67222;50.182;8.734;2023-04-24T07:27:34;99475.38;;;10.37;63.48
78014;BME280;67222;50.182;8.734;2023-04-24T07:29:59;99487.84;;;10.43;63.73
78014;BME280;67222;50.182;8.734;2023-04-24T07:32:25;99479.31;;;10.35;63.12
78014;BME280;67222;50.182;8.734;2023-04-24T07:34:50;99493.59;;;10.40;62.66
78014;BME280;67222;50.182;8.734;2023-04-24T07:37:16;99475.75;;;10.41;63.87
78014;BME280;67222;50.182;8.734;2023-04-24T07:39:41;99468.75;;;10.58;64.70
78014;BME280;67222;50.182;8.734;2023-04-24T07:42:07;99475.16;;;10.69;64.07
78014;BME280;67222;50.182;8.734;2023-04-24T07:44:32;99466.34;;;10.68;61.85
78014;BME280;67222;50.182;8.734;2023-04-24T07:46:57;99456.16;;;10.77;63.45
78014;BME280;67222;50.182;8.734;2023-04-24T07:49:23;99445.53;;;10.88;64.62
78014;BME280;67222;50.182;8.734;2023-04-24T07:51:49;99463.41;;;11.00;62.89
78014;BME280;67222;50.182;8.734;2023-04-24T07:54:14;99464.91;;;11.07;63.07
78014;BME280;67222;50.182;8.734;2023-04-24T07:56:40;99476.06;;;11.04;63.14
78014;BME280;67222;50.182;8.734;2023-04-24T07:59:08;99482.09;;;11.11;63.30
78014;BME280;67222;50.182;8.734;2023-04-24T08:01:34;99497.63;;;11.14;61.13
78014;BME280;67222;50.182;8.734;2023-04-24T08:04:00;99481.75;;;11.08;61.63
78014;BME280;67222;50.182;8.734;2023-04-24T08:06:25;99491.38;;;11.20;61.97
78014;BME280;67222;50.182;8.734;2023-04-24T08:08:55;99499.50;;;11.26;60.87
78014;BME280;67222;50.182;8.734;2023-04-24T08:11:20;99490.81;;;11.30;60.91
78014;BME280;67222;50.182;8.734;2023-04-24T08:13:45;99497.53;;;11.21;60.63
78014;BME280;67222;50.182;8.734;2023-04-24T08:16:10;99499.97;;;11.22;61.53
78014;BME280;67222;50.182;8.734;2023-04-24T08:18:36;99499.72;;;11.12;60.53
78014;BME280;67222;50.182;8.734;2023-04-24T08:21:01;99499.25;;;11.15;60.79
78014;BME280;67222;50.182;8.734;2023-04-24T08:23:27;99496.72;;;11.20;61.31
78014;BME280;67222;50.182;8.734;2023-04-24T08:25:52;99502.06;;;11.20;59.03
78014;BME280;67222;50.182;8.734;2023-04-24T08:28:17;99498.94;;;11.23;58.38
78014;BME280;67222;50.182;8.734;2023-04-24T08:30:45;99490.00;;;11.30;58.97
78014;BME280;67222;50.182;8.734;2023-04-24T08:33:11;99499.28;;;11.27;59.27
78014;BME280;67222;50.182;8.734;2023-04-24T08:35:36;99498.72;;;11.37;59.33
78014;BME280;67222;50.182;8.734;2023-04-24T08:38:01;99510.91;;;11.44;59.55
78014;BME280;67222;50.182;8.734;2023-04-24T08:40:28;99514.03;;;11.65;58.96
78014;BME280;67222;50.182;8.734;2023-04-24T08:42:55;99519.28;;;11.83;58.22
78014;BME280;67222;50.182;8.734;2023-04-24T08:45:23;99514.84;;;12.00;58.12
78014;BME280;67222;50.182;8.734;2023-04-24T08:47:48;99510.38;;;12.18;56.71
78014;BME280;67222;50.182;8.734;2023-04-24T08:50:17;99518.03;;;12.26;58.08
78014;BME280;67222;50.182;8.734;2023-04-24T08:52:42;99519.00;;;12.08;56.96
78014;BME280;67222;50.182;8.734;2023-04-24T08:55:08;99518.56;;;11.99;56.94
78014;BME280;67222;50.182;8.734;2023-04-24T08:57:33;99524.63;;;11.95;56.28
78014;BME280;67222;50.182;8.734;2023-04-24T09:00:01;99530.19;;;11.81;57.66
78014;BME280;67222;50.182;8.734;2023-04-24T09:02:27;99531.19;;;11.69;57.47
78014;BME280;67222;50.182;8.734;2023-04-24T09:04:55;99533.88;;;11.69;56.93
78014;BME280;67222;50.182;8.734;2023-04-24T09:07:22;99531.91;;;11.64;57.87
78014;BME280;67222;50.182;8.734;2023-04-24T09:09:50;99543.88;;;11.62;57.32
78014;BME280;67222;50.182;8.734;2023-04-24T09:12:16;99544.44;;;11.64;58.86
78014;BME280;67222;50.182;8.734;2023-04-24T09:14:42;99549.91;;;11.69;58.82
78014;BME280;67222;50.182;8.734;2023-04-24T09:17:10;99551.41;;;11.65;59.38
78014;BME280;67222;50.182;8.734;2023-04-24T09:19:35;99550.72;;;11.58;59.52
78014;BME280;67222;50.182;8.734;2023-04-24T09:22:05;99574.97;;;11.44;60.49
78014;BME280;67222;50.182;8.734;2023-04-24T09:24:31;99558.59;;;11.52;60.30
78014;BME280;67222;50.182;8.734;2023-04-24T09:26:57;99563.13;;;11.64;60.37
78014;BME280;67222;50.182;8.734;2023-04-24T09:29:29;99567.91;;;11.73;59.75
78014;BME280;67222;50.182;8.734;2023-04-24T09:31:55;99580.44;;;11.61;61.35
78014;BME280;67222;50.182;8.734;2023-04-24T09:34:24;99569.97;;;11.48;60.70
78014;BME280;67222;50.182;8.734;2023-04-24T09:36:50;99578.28;;;11.28;61.89
78014;BME280;67222;50.182;8.734;2023-04-24T09:39:17;99579.03;;;11.35;61.85
78014;BME280;67222;50.182;8.734;2023-04-24T09:41:54;99583.56;;;11.35;61.03
78014;BME280;67222;50.182;8.734;2023-04-24T09:44:24;99591.75;;;11.33;60.22
78014;BME280;67222;50.182;8.734;2023-04-24T09:46:57;99595.94;;;11.29;59.51
78014;BME280;67222;50.182;8.734;2023-04-24T09:49:28;99582.25;;;11.26;60.21
78014;BME280;67222;50.182;8.734;2023-04-24T09:52:09;99596.16;;;11.28;62.41
78014;BME280;67222;50.182;8.734;2023-04-24T09:54:35;99594.66;;;11.20;62.42
78014;BME280;67222;50.182;8.734;2023-04-24T09:57:02;99605.31;;;11.20;61.50
78014;BME280;67222;50.182;8.734;2023-04-24T09:59:28;99605.91;;;11.22;61.87
78014;BME280;67222;50.182;8.734;2023-04-24T10:01:54;99602.72;;;11.13;62.03
78014;BME280;67222;50.182;8.734;2023-04-24T10:04:23;99604.47;;;11.08;62.84
78014;BME280;67222;50.182;8.734;2023-04-24T10:06:51;99605.28;;;11.08;62.85
78014;BME280;67222;50.182;8.734;2023-04-24T10:09:21;99609.56;;;11.09;62.42
78014;BME280;67222;50.182;8.734;2023-04-24T10:11:49;99605.72;;;11.05;61.28
78014;BME280;67222;50.182;8.734;2023-04-24T10:14:22;99611.16;;;10.99;61.99
78014;BME280;67222;50.182;8.734;2023-04-24T10:16:49;99613.72;;;11.05;62.26
78014;BME280;67222;50.182;8.734;2023-04-24T10:19:16;99610.59;;;11.08;63.13
78014;BME280;67222;50.182;8.734;2023-04-24T10:21:43;99612.59;;;11.13;63.31
78014;BME280;67222;50.182;8.734;2023-04-24T10:24:15;99612.97;;;11.16;63.66
78014;BME280;67222;50.182;8.734;2023-04-24T10:26:41;99616.19;;;11.07;64.07
78014;BME280;67222;50.182;8.734;2023-04-24T10:29:06;99625.81;;;11.08;65.89
78014;BME280;67222;50.182;8.734;2023-04-24T10:31:36;99633.72;;;11.14;66.46
78014;BME280;67222;50.182;8.734;2023-04-24T10:34:02;99648.25;;;11.18;64.57
78014;BME280;67222;50.182;8.734;2023-04-24T10:36:28;99663.56;;;11.23;64.42
78014;BME280;67222;50.182;8.734;2023-04-24T10:38:58;99652.19;;;11.16;66.77
78014;BME280;67222;50.182;8.734;2023-04-24T10:41:26;99673.69;;;11.03;69.89
78014;BME280;67222;50.182;8.734;2023-04-24T10:46:32;99680.09;;;10.47;74.80
78014;BME280;67222;50.182;8.734;2023-04-24T10:48:57;99677.19;;;10.30;75.07
78014;BME280;67222;50.182;8.734;2023-04-24T10:51:24;99693.63;;;10.20;77.05
78014;BME280;67222;50.182;8.734;2023-04-24T10:53:51;99688.91;;;9.97;77.89
78014;BME280;67222;50.182;8.734;2023-04-24T10:56:17;99687.50;;;9.95;80.75
78014;BME280;67222;50.182;8.734;2023-04-24T10:58:44;99683.56;;;10.04;82.11
78014;BME280;67222;50.182;8.734;2023-04-24T11:01:31;99673.56;;;10.18;81.50
78014;BME280;67222;50.182;8.734;2023-04-24T11:03:59;99670.50;;;10.39;80.60
78014;BME280;67222;50.182;8.734;2023-04-24T11:06:31;99671.97;;;10.60;81.79
78014;BME280;67222;50.182;8.734;2023-04-24T11:09:08;99679.25;;;11.01;80.38
78014;BME280;67222;50.182;8.734;2023-04-24T11:11:36;99670.63;;;11.17;78.13
78014;BME280;67222;50.182;8.734;2023-04-24T11:14:04;99666.25;;;11.23;76.83
78014;BME280;67222;50.182;8.734;2023-04-24T11:19:05;99681.91;;;11.31;74.10
78014;BME280;67222;50.182;8.734;2023-04-24T11:21:38;99675.28;;;11.22;73.02
78014;BME280;67222;50.182;8.734;2023-04-24T11:26:54;99673.22;;;11.24;74.51
78014;BME280;67222;50.182;8.734;2023-04-24T11:29:20;99677.84;;;11.29;72.97
78014;BME280;67222;50.182;8.734;2023-04-24T11:31:47;99678.25;;;11.44;74.41
78014;BME280;67222;50.182;8.734;2023-04-24T11:34:15;99672.03;;;11.62;74.47
78014;BME280;67222;50.182;8.734;2023-04-24T11:36:45;99684.09;;;11.94;74.92
78014;BME280;67222;50.182;8.734;2023-04-24T11:39:11;99684.34;;;12.39;68.72
78014;BME280;67222;50.182;8.734;2023-04-24T11:41:37;99678.69;;;12.76;68.59
78014;BME280;67222;50.182;8.734;2023-04-24T11:44:06;99689.81;;;12.96;66.14
78014;BME280;67222;50.182;8.734;2023-04-24T11:46:31;99701.41;;;12.62;65.77
78014;BME280;67222;50.182;8.734;2023-04-24T11:48:57;99696.44;;;12.19;65.62
78014;BME280;67222;50.182;8.734;2023-04-24T11:51:25;99702.09;;;11.99;nan
78014;BME280;67222;50.182;8.734;2023-04-24T11:53:52;99702.59;;;11.66;68.28
78014;BME280;67222;50.182;8.734;2023-04-24T11:56:18;99707.03;;;11.42;72.82
78014;BME280;67222;50.182;8.734;2023-04-24T11:58:45;99717.81;;;11.35;74.21
78014;BME280;67222;50.182;8.734;2023-04-24T12:01:10;99713.81;;;11.26;73.68
78014;BME280;67222;50.182;8.734;2023-04-24T12:03:36;99701.66;;;11.30;76.81
78014;BME280;67222;50.182;8.734;2023-04-24T12:06:09;99715.41;;;11.45;75.16
78014;BME280;67222;50.182;8.734;2023-04-24T12:08:34;99714.53;;;11.63;70.71
78014;BME280;67222;50.182;8.734;2023-04-24T12:11:04;99706.72;;;11.80;70.92
78014;BME280;67222;50.182;8.734;2023-04-24T12:13:30;99695.94;;;11.98;72.88
78014;BME280;67222;50.182;8.734;2023-04-24T12:15:57;99700.63;;;12.38;68.18
78014;BME280;67222;50.182;8.734;2023-04-24T12:18:23;99710.72;;;12.48;64.44
78014;BME280;67222;50.182;8.734;2023-04-24T12:20:48;99703.75;;;12.35;62.62
78014;BME280;67222;50.182;8.734;2023-04-24T12:23:14;99709.44;;;12.27;62.76
78014;BME280;67222;50.182;8.734;2023-04-24T12:25:39;99710.69;;;12.01;62.00
78014;BME280;67222;50.182;8.734;2023-04-24T12:30:38;99733.34;;;11.57;70.76
78014;BME280;67222;50.182;8.734;2023-04-24T12:33:03;99740.44;;;11.14;76.42
78014;BME280;67222;50.182;8.734;2023-04-24T12:35:31;99744.59;;;10.74;78.01
78014;BME280;67222;50.182;8.734;2023-04-24T12:38:12;99735.84;;;10.48;80.35
78014;BME280;67222;50.182;8.734;2023-04-24T12:40:39;99733.59;;;10.27;78.77
78014;BME280;67222;50.182;8.734;2023-04-24T12:43:18;99732.97;;;10.50;79.60
78014;BME280;67222;50.182;8.734;2023-04-24T12:45:44;99722.22;;;11.11;83.50
78014;BME280;67222;50.182;8.734;2023-04-24T12:48:12;99724.19;;;11.94;78.47
78014;BME280;67222;50.182;8.734;2023-04-24T12:50:39;99715.25;;;12.59;74.20
78014;BME280;67222;50.182;8.734;2023-04-24T12:53:04;99717.47;;;12.38;71.35
78014;BME280;67222;50.182;8.734;2023-04-24T12:55:29;99714.44;;;12.11;73.42
78014;BME280;67222;50.182;8.734;2023-04-24T12:57:55;99732.47;;;11.74;70.75
78014;BME280;67222;50.182;8.734;2023-04-24T13:00:21;99726.63;;;11.66;74.46
78014;BME280;67222;50.182;8.734;2023-04-24T13:02:46;99715.47;;;11.69;74.07
78014;BME280;67222;50.182;8.734;2023-04-24T13:05:11;99708.44;;;11.74;74.42
78014;BME280;67222;50.182;8.734;2023-04-24T13:07:40;99726.13;;;11.87;72.80
78014;BME280;67222;50.182;8.734;2023-04-24T13:10:06;99725.88;;;11.89;73.92
78014;BME280;67222;50.182;8.734;2023-04-24T13:12:32;99718.47;;;12.02;73.46
78014;BME280;67222;50.182;8.734;2023-04-24T13:14:58;99724.78;;;12.20;71.99
78014;BME280;67222;50.182;8.734;2023-04-24T13:17:23;99717.34;;;12.22;70.58
78014;BME280;67222;50.182;8.734;2023-04-24T13:19:50;99725.56;;;12.08;71.18
78014;BME280;67222;50.182;8.734;2023-04-24T13:22:16;99722.81;;;12.15;69.74
78014;BME280;67222;50.182;8.734;2023-04-24T13:24:42;99728.16;;;12.15;70.07
78014;BME280;67222;50.182;8.734;2023-04-24T13:27:08;99739.31;;;12.24;69.12
78014;BME280;67222;50.182;8.734;2023-04-24T13:29:34;99732.69;;;12.15;66.62
78014;BME280;67222;50.182;8.734;2023-04-24T13:31:59;99723.72;;;12.21;66.57
78014;BME280;67222;50.182;8.734;2023-04-24T13:34:25;99731.88;;;12.14;65.23
78014;BME280;67222;50.182;8.734;2023-04-24T13:36:55;99731.06;;;12.37;62.27
78014;BME280;67222;50.182;8.734;2023-04-24T13:39:22;99739.88;;;12.61;65.71
78014;BME280;67222;50.182;8.734;2023-04-24T13:41:47;99759.00;;;12.64;66.76
78014;BME280;67222;50.182;8.734;2023-04-24T13:44:16;99772.88;;;12.08;59.72
78014;BME280;67222;50.182;8.734;2023-04-24T13:46:44;99762.97;;;11.67;61.75
78014;BME280;67222;50.182;8.734;2023-04-24T13:49:10;99761.28;;;11.24;62.64
78014;BME280;67222;50.182;8.734;2023-04-24T13:51:36;99760.22;;;11.25;64.13
78014;BME280;67222;50.182;8.734;2023-04-24T13:54:01;99757.72;;;11.12;65.15
78014;BME280;67222;50.182;8.734;2023-04-24T13:56:27;99750.16;;;11.27;64.90
78014;BME280;67222;50.182;8.734;2023-04-24T13:58:52;99751.47;;;11.36;65.64
78014;BME280;67222;50.182;8.734;2023-04-24T14:01:19;99757.72;;;11.60;64.03
78014;BME280;67222;50.182;8.734;2023-04-24T14:03:45;99760.00;;;11.75;64.35
78014;BME280;67222;50.182;8.734;2023-04-24T14:06:11;99758.44;;;11.67;61.52
78014;BME280;67222;50.182;8.734;2023-04-24T14:08:36;99757.91;;;11.77;63.78
78014;BME280;67222;50.182;8.734;2023-04-24T14:11:01;99753.81;;;11.93;62.34
78014;BME280;67222;50.182;8.734;2023-04-24T14:13:27;99755.78;;;11.97;63.99
78014;BME280;67222;50.182;8.734;2023-04-24T14:15:53;99754.38;;;12.06;64.06
78014;BME280;67222;50.182;8.734;2023-04-24T14:18:18;99745.34;;;12.19;64.89
78014;BME280;67222;50.182;8.734;2023-04-24T14:20:44;99747.78;;;12.44;62.19
78014;BME280;67222;50.182;8.734;2023-04-24T14:23:10;99750.69;;;12.89;61.82
78014;BME280;67222;50.182;8.734;2023-04-24T14:25:35;99732.81;;;13.30;57.07
78014;BME280;67222;50.182;8.734;2023-04-24T14:28:00;99732.72;;;13.99;56.65
78014;BME280;67222;50.182;8.734;2023-04-24T14:30:26;99738.06;;;14.49;53.62
78014;BME280;67222;50.182;8.734;2023-04-24T14:32:51;99736.06;;;14.78;54.19
78014;BME280;67222;50.182;8.734;2023-04-24T14:35:17;99736.69;;;14.63;52.95
78014;BME280;67222;50.182;8.734;2023-04-24T14:37:42;99734.66;;;14.37;54.57
78014;BME280;67222;50.182;8.734;2023-04-24T14:40:08;99732.53;;;13.88;53.40
78014;BME280;67222;50.182;8.734;2023-04-24T14:42:34;99736.19;;;13.54;54.51
78014;BME280;67222;50.182;8.734;2023-04-24T14:45:00;99736.22;;;13.25;56.99
78014;BME280;67222;50.182;8.734;2023-04-24T14:47:25;99750.97;;;13.16;56.59
78014;BME280;67222;50.182;8.734;2023-04-24T14:49:51;99746.59;;;12.98;55.06
78014;BME280;67222;50.182;8.734;2023-04-24T14:52:16;99749.53;;;12.85;54.70
78014;BME280;67222;50.182;8.734;2023-04-24T14:54:42;99746.06;;;12.73;56.49
78014;BME280;67222;50.182;8.734;2023-04-24T14:57:08;99749.78;;;12.72;54.58
78014;BME280;67222;50.182;8.734;2023-04-24T14:59:34;99748.41;;;12.69;56.05
78014;BME280;67222;50.182;8.734;2023-04-24T15:01:59;99754.69;;;12.52;55.73
78014;BME280;67222;50.182;8.734;2023-04-24T15:04:25;99762.34;;;12.48;57.72
78014;BME280;67222;50.182;8.734;2023-04-24T15:06:51;99755.97;;;12.49;54.03
78014;BME280;67222;50.182;8.734;2023-04-24T15:09:16;99753.28;;;12.49;56.52
78014;BME280;67222;50.182;8.734;2023-04-24T15:11:42;99757.13;;;12.53;52.93
78014;BME280;67222;50.182;8.734;2023-04-24T15:14:07;99763.28;;;12.54;53.27
78014;BME280;67222;50.182;8.734;2023-04-24T15:16:32;99750.16;;;12.52;54.28
78014;BME280;67222;50.182;8.734;2023-04-24T15:18:58;99753.03;;;12.62;54.15
78014;BME280;67222;50.182;8.734;2023-04-24T15:21:23;99754.22;;;12.66;56.12
78014;BME280;67222;50.182;8.734;2023-04-24T15:23:48;99760.03;;;12.52;56.62
78014;BME280;67222;50.182;8.734;2023-04-24T15:26:13;99757.00;;;12.48;57.20
78014;BME280;67222;50.182;8.734;2023-04-24T15:28:39;99759.78;;;12.41;58.52
78014;BME280;67222;50.182;8.734;2023-04-24T15:31:04;99754.22;;;12.31;57.46
78014;BME280;67222;50.182;8.734;2023-04-24T15:33:30;99750.84;;;12.36;59.67
78014;BME280;67222;50.182;8.734;2023-04-24T15:35:55;99754.88;;;12.27;60.07
78014;BME280;67222;50.182;8.734;2023-04-24T15:38:20;99762.56;;;12.35;58.31
78014;BME280;67222;50.182;8.734;2023-04-24T15:40:46;99762.69;;;12.40;56.51
78014;BME280;67222;50.182;8.734;2023-04-24T15:43:11;99761.19;;;12.32;58.20
78014;BME280;67222;50.182;8.734;2023-04-24T15:45:36;99755.84;;;12.32;57.14
78014;BME280;67222;50.182;8.734;2023-04-24T15:48:02;99762.09;;;12.26;55.74
78014;BME280;67222;50.182;8.734;2023-04-24T15:50:27;99755.72;;;12.27;55.99
78014;BME280;67222;50.182;8.734;2023-04-24T15:52:53;99758.41;;;12.27;55.47
78014;BME280;67222;50.182;8.734;2023-04-24T15:55:18;99763.72;;;12.39;55.32
78014;BME280;67222;50.182;8.734;2023-04-24T15:57:44;99764.56;;;12.28;55.90
78014;BME280;67222;50.182;8.734;2023-04-24T16:00:09;99767.66;;;12.25;53.74
78014;BME280;67222;50.182;8.734;2023-04-24T16:02:35;99760.03;;;12.28;55.99
78014;BME280;67222;50.182;8.734;2023-04-24T16:05:00;99767.91;;;12.35;54.84
78014;BME280;67222;50.182;8.734;2023-04-24T16:07:25;99764.91;;;12.31;54.42
78014;BME280;67222;50.182;8.734;2023-04-24T16:09:51;99767.69;;;12.36;52.44
78014;BME280;67222;50.182;8.734;2023-04-24T16:12:16;99764.44;;;12.46;54.19
78014;BME280;67222;50.182;8.734;2023-04-24T16:14:42;99772.13;;;12.54;54.45
78014;BME280;67222;50.182;8.734;2023-04-24T16:17:07;99768.25;;;12.62;54.28
78014;BME280;67222;50.182;8.734;2023-04-24T16:19:33;99766.03;;;12.82;54.50
78014;BME280;67222;50.182;8.734;2023-04-24T16:21:59;99762.69;;;12.87;53.61
78014;BME280;67222;50.182;8.734;2023-04-24T16:24:25;99770.56;;;12.93;53.09
78014;BME280;67222;50.182;8.734;2023-04-24T16:26:51;99769.44;;;12.78;54.61
78014;BME280;67222;50.182;8.734;2023-04-24T16:29:17;99776.88;;;12.87;52.60
78014;BME280;67222;50.182;8.734;2023-04-24T16:31:43;99782.66;;;12.96;54.18
78014;BME280;67222;50.182;8.734;2023-04-24T16:34:08;99774.06;;;13.06;51.42
78014;BME280;67222;50.182;8.734;2023-04-24T16:36:36;99774.53;;;12.91;52.39
78014;BME280;67222;50.182;8.734;2023-04-24T16:39:02;99782.66;;;12.96;51.49
78014;BME280;67222;50.182;8.734;2023-04-24T16:41:29;99777.69;;;12.88;52.54
78014;BME280;67222;50.182;8.734;2023-04-24T16:43:55;99785.25;;;12.67;52.77
78014;BME280;67222;50.182;8.734;2023-04-24T16:46:20;99774.66;;;12.61;53.72
78014;BME280;67222;50.182;8.734;2023-04-24T16:48:46;99770.84;;;12.57;53.34
78014;BME280;67222;50.182;8.734;2023-04-24T16:51:11;99775.38;;;12.56;52.12
78014;BME280;67222;50.182;8.734;2023-04-24T16:53:36;99771.19;;;12.60;52.86
78014;BME280;67222;50.182;8.734;2023-04-24T16:56:02;99772.00;;;12.49;53.80
78014;BME280;67222;50.182;8.734;2023-04-24T16:58:28;99774.91;;;12.36;54.24
78014;BME280;67222;50.182;8.734;2023-04-24T17:00:53;99776.97;;;12.46;51.00
78014;BME280;67222;50.182;8.734;2023-04-24T17:03:18;99775.25;;;12.39;53.10
78014;BME280;67222;50.182;8.734;2023-04-24T17:05:44;99781.28;;;12.35;53.07
78014;BME280;67222;50.182;8.734;2023-04-24T17:08:09;99782.53;;;12.21;53.86
78014;BME280;67222;50.182;8.734;2023-04-24T17:10:34;99785.09;;;12.16;55.89
78014;BME280;67222;50.182;8.734;2023-04-24T17:13:00;99786.94;;;12.15;54.37
78014;BME280;67222;50.182;8.734;2023-04-24T17:15:25;99787.75;;;12.16;54.66
78014;BME280;67222;50.182;8.734;2023-04-24T17:17:51;99789.63;;;12.15;54.00
78014;BME280;67222;50.182;8.734;2023-04-24T17:20:16;99787.72;;;12.04;54.68
78014;BME280;67222;50.182;8.734;2023-04-24T17:22:41;99790.31;;;12.10;55.32
78014;BME280;67222;50.182;8.734;2023-04-24T17:25:07;99777.28;;;12.02;55.74
78014;BME280;67222;50.182;8.734;2023-04-24T17:27:33;99789.28;;;12.11;56.47
78014;BME280;67222;50.182;8.734;2023-04-24T17:29:58;99794.63;;;12.11;56.66
78014;BME280;67222;50.182;8.734;2023-04-24T17:32:24;99796.94;;;12.20;56.96
78014;BME280;67222;50.182;8.734;2023-04-24T17:34:49;99803.00;;;12.15;55.51
78014;BME280;67222;50.182;8.734;2023-04-24T17:37:15;99802.53;;;12.18;55.75